sensor_id;sensor_type;location;lat;lon;timestamp;temperature;humidity
8792;DHT22;4432;50.890;4.744;2023-05-07T00:00:03;13.90;99.90
8792;DHT22;4432;50.890;4.744;2023-05-07T00:02:33;13.80;99.90
8792;DHT22;4432;50.890;4.744;2023-05-07T00:04:58;13.80;99.90
8792;DHT22;4432;50.890;4.744;2023-05-07T00:07:24;13.80;99.90
8792;DHT22;4432;50.890;4.744;2023-05-07T00:09:50;13.80;99.90
8792;DHT22;4432;50.890;4.744;2023-05-07T00:12:16;13.80;99.90
8792;DHT22;4432;50.890;4.744;2023-05-07T00:14:41;13.90;99.90
8792;DHT22;4432;50.890;4.744;2023-05-07T00:17:07;13.90;99.90
8792;DHT22;4432;50.890;4.744;2023-05-07T00:19:33;14.00;99.90
8792;DHT22;4432;50.890;4.744;2023-05-07T00:21:59;14.00;99.90
8792;DHT22;4432;50.890;4.744;2023-05-07T00:24:25;14.00;99.90
8792;DHT22;4432;50.890;4.744;2023-05-07T00:26:50;14.00;99.90
8792;DHT22;4432;50.890;4.744;2023-05-07T00:29:18;14.00;99.90
8792;DHT22;4432;50.890;4.744;2023-05-07T00:31:43;13.90;99.90
8792;DHT22;4432;50.890;4.744;2023-05-07T00:34:09;14.00;99.90
8792;DHT22;4432;50.890;4.744;2023-05-07T00:36:35;13.90;99.90
8792;DHT22;4432;50.890;4.744;2023-05-07T00:39:01;13.90;99.90
8792;DHT22;4432;50.890;4.744;2023-05-07T00:41:29;13.90;99.90
8792;DHT22;4432;50.890;4.744;2023-05-07T00:43:56;14.00;99.90
8792;DHT22;4432;50.890;4.744;2023-05-07T00:46:22;14.00;99.90
8792;DHT22;4432;50.890;4.744;2023-05-07T00:48:50;14.00;99.90
8792;DHT22;4432;50.890;4.744;2023-05-07T00:51:17;14.00;99.90
8792;DHT22;4432;50.890;4.744;2023-05-07T00:53:43;14.00;99.90
8792;DHT22;4432;50.890;4.744;2023-05-07T00:56:09;13.90;99.90
8792;DHT22;4432;50.890;4.744;2023-05-07T00:58:35;13.90;99.90
8792;DHT22;4432;50.890;4.744;2023-05-07T01:01:01;13.90;99.90
8792;DHT22;4432;50.890;4.744;2023-05-07T01:03:27;13.90;99.90
8792;DHT22;4432;50.890;4.744;2023-05-07T01:05:54;13.90;99.90
8792;DHT22;4432;50.890;4.744;2023-05-07T01:08:20;13.80;99.90
8792;DHT22;4432;50.890;4.744;2023-05-07T01:10:48;13.80;99.90
8792;DHT22;4432;50.890;4.744;2023-05-07T01:13:14;13.80;99.90
8792;DHT22;4432;50.890;4.744;2023-05-07T01:15:40;13.80;99.90
8792;DHT22;4432;50.890;4.744;2023-05-07T01:18:06;13.80;99.90
8792;DHT22;4432;50.890;4.744;2023-05-07T01:20:33;13.80;99.90
8792;DHT22;4432;50.890;4.744;2023-05-07T01:22:59;13.80;99.90
8792;DHT22;4432;50.890;4.744;2023-05-07T01:25:26;13.80;99.90
8792;DHT22;4432;50.890;4.744;2023-05-07T01:27:52;13.80;99.90
8792;DHT22;4432;50.890;4.744;2023-05-07T01:30:19;13.80;99.90
8792;DHT22;4432;50.890;4.744;2023-05-07T01:32:57;13.90;99.90
8792;DHT22;4432;50.890;4.744;2023-05-07T01:35:29;13.90;99.90
8792;DHT22;4432;50.890;4.744;2023-05-07T01:37:56;13.90;99.90
8792;DHT22;4432;50.890;4.744;2023-05-07T01:40:23;14.00;99.90
8792;DHT22;4432;50.890;4.744;2023-05-07T01:42:50;14.00;99.90
8792;DHT22;4432;50.890;4.744;2023-05-07T01:45:16;14.00;99.90
8792;DHT22;4432;50.890;4.744;2023-05-07T01:47:42;14.10;99.90
8792;DHT22;4432;50.890;4.744;2023-05-07T01:50:09;14.10;99.90
8792;DHT22;4432;50.890;4.744;2023-05-07T01:52:39;14.10;99.90
8792;DHT22;4432;50.890;4.744;2023-05-07T01:55:06;14.10;99.90
8792;DHT22;4432;50.890;4.744;2023-05-07T01:57:32;14.10;99.90
8792;DHT22;4432;50.890;4.744;2023-05-07T01:59:57;14.10;99.90
8792;DHT22;4432;50.890;4.744;2023-05-07T02:02:23;14.00;99.90
8792;DHT22;4432;50.890;4.744;2023-05-07T02:04:49;14.00;99.90
8792;DHT22;4432;50.890;4.744;2023-05-07T02:07:15;14.00;99.90
8792;DHT22;4432;50.890;4.744;2023-05-07T02:09:41;14.00;99.90
8792;DHT22;4432;50.890;4.744;2023-05-07T02:12:06;14.00;99.90
8792;DHT22;4432;50.890;4.744;2023-05-07T02:14:32;14.00;99.90
8792;DHT22;4432;50.890;4.744;2023-05-07T02:16:58;14.00;99.90
8792;DHT22;4432;50.890;4.744;2023-05-07T02:19:23;14.00;99.90
8792;DHT22;4432;50.890;4.744;2023-05-07T02:21:49;14.10;99.90
8792;DHT22;4432;50.890;4.744;2023-05-07T02:24:15;14.20;99.90
8792;DHT22;4432;50.890;4.744;2023-05-07T02:26:41;14.20;99.90
8792;DHT22;4432;50.890;4.744;2023-05-07T02:29:07;14.20;99.90
8792;DHT22;4432;50.890;4.744;2023-05-07T02:31:32;14.10;99.90
8792;DHT22;4432;50.890;4.744;2023-05-07T02:34:01;14.10;99.90
8792;DHT22;4432;50.890;4.744;2023-05-07T02:36:27;14.10;99.90
8792;DHT22;4432;50.890;4.744;2023-05-07T02:38:53;14.00;99.90
8792;DHT22;4432;50.890;4.744;2023-05-07T02:41:19;14.00;99.90
8792;DHT22;4432;50.890;4.744;2023-05-07T02:43:46;14.00;99.90
8792;DHT22;4432;50.890;4.744;2023-05-07T02:46:12;14.00;99.90
8792;DHT22;4432;50.890;4.744;2023-05-07T02:48:37;14.00;99.90
8792;DHT22;4432;50.890;4.744;2023-05-07T02:51:04;14.00;99.90
8792;DHT22;4432;50.890;4.744;2023-05-07T02:53:30;14.00;99.90
8792;DHT22;4432;50.890;4.744;2023-05-07T02:55:59;14.00;99.90
8792;DHT22;4432;50.890;4.744;2023-05-07T02:58:25;14.00;99.90
8792;DHT22;4432;50.890;4.744;2023-05-07T03:00:51;14.10;99.90
8792;DHT22;4432;50.890;4.744;2023-05-07T03:03:17;14.10;99.90
8792;DHT22;4432;50.890;4.744;2023-05-07T03:05:43;14.10;99.90
8792;DHT22;4432;50.890;4.744;2023-05-07T03:08:10;14.10;99.90
8792;DHT22;4432;50.890;4.744;2023-05-07T03:10:37;14.10;99.90
8792;DHT22;4432;50.890;4.744;2023-05-07T03:13:03;14.10;99.90
8792;DHT22;4432;50.890;4.744;2023-05-07T03:15:29;14.10;99.90
8792;DHT22;4432;50.890;4.744;2023-05-07T03:17:55;14.10;99.90
8792;DHT22;4432;50.890;4.744;2023-05-07T03:20:20;14.20;99.90
8792;DHT22;4432;50.890;4.744;2023-05-07T03:22:46;14.20;99.90
8792;DHT22;4432;50.890;4.744;2023-05-07T03:25:12;14.20;99.90
8792;DHT22;4432;50.890;4.744;2023-05-07T03:27:38;14.30;99.90
8792;DHT22;4432;50.890;4.744;2023-05-07T03:30:04;14.30;99.90
8792;DHT22;4432;50.890;4.744;2023-05-07T03:32:30;14.30;99.90
8792;DHT22;4432;50.890;4.744;2023-05-07T03:34:55;14.30;99.90
8792;DHT22;4432;50.890;4.744;2023-05-07T03:37:21;14.30;99.90
8792;DHT22;4432;50.890;4.744;2023-05-07T03:39:47;14.30;99.90
8792;DHT22;4432;50.890;4.744;2023-05-07T03:42:13;14.30;99.90
8792;DHT22;4432;50.890;4.744;2023-05-07T03:44:39;14.20;99.90
8792;DHT22;4432;50.890;4.744;2023-05-07T03:47:04;14.20;99.90
8792;DHT22;4432;50.890;4.744;2023-05-07T03:49:30;14.20;99.90
8792;DHT22;4432;50.890;4.744;2023-05-07T03:51:56;14.20;99.90
8792;DHT22;4432;50.890;4.744;2023-05-07T03:54:22;14.20;99.90
8792;DHT22;4432;50.890;4.744;2023-05-07T03:56:47;14.10;99.90
8792;DHT22;4432;50.890;4.744;2023-05-07T03:59:13;14.10;99.90
8792;DHT22;4432;50.890;4.744;2023-05-07T04:01:39;14.10;99.90
8792;DHT22;4432;50.890;4.744;2023-05-07T04:04:05;14.20;99.90
8792;DHT22;4432;50.890;4.744;2023-05-07T04:06:31;14.10;99.90
8792;DHT22;4432;50.890;4.744;2023-05-07T04:08:57;14.10;99.90
8792;DHT22;4432;50.890;4.744;2023-05-07T04:11:23;14.10;99.90
8792;DHT22;4432;50.890;4.744;2023-05-07T04:13:49;14.10;99.90
8792;DHT22;4432;50.890;4.744;2023-05-07T04:16:15;14.10;99.90
8792;DHT22;4432;50.890;4.744;2023-05-07T04:18:41;14.10;99.90
8792;DHT22;4432;50.890;4.744;2023-05-07T04:21:17;14.10;99.90
8792;DHT22;4432;50.890;4.744;2023-05-07T04:23:43;14.20;99.90
8792;DHT22;4432;50.890;4.744;2023-05-07T04:26:09;14.20;99.90
8792;DHT22;4432;50.890;4.744;2023-05-07T04:28:35;14.10;99.90
8792;DHT22;4432;50.890;4.744;2023-05-07T04:31:01;14.10;99.90
8792;DHT22;4432;50.890;4.744;2023-05-07T04:33:27;14.10;99.90
8792;DHT22;4432;50.890;4.744;2023-05-07T04:35:53;14.10;99.90
8792;DHT22;4432;50.890;4.744;2023-05-07T04:38:19;14.00;99.90
8792;DHT22;4432;50.890;4.744;2023-05-07T04:40:45;14.00;99.90
8792;DHT22;4432;50.890;4.744;2023-05-07T04:43:12;14.00;99.90
8792;DHT22;4432;50.890;4.744;2023-05-07T04:45:38;14.00;99.90
8792;DHT22;4432;50.890;4.744;2023-05-07T04:48:07;14.00;99.90
8792;DHT22;4432;50.890;4.744;2023-05-07T04:50:32;13.90;99.90
8792;DHT22;4432;50.890;4.744;2023-05-07T04:52:58;13.90;99.90
8792;DHT22;4432;50.890;4.744;2023-05-07T04:55:24;14.00;99.90
8792;DHT22;4432;50.890;4.744;2023-05-07T04:57:50;14.00;99.90
8792;DHT22;4432;50.890;4.744;2023-05-07T05:00:16;14.10;99.90
8792;DHT22;4432;50.890;4.744;2023-05-07T05:02:42;14.20;99.90
8792;DHT22;4432;50.890;4.744;2023-05-07T05:05:08;14.30;99.90
8792;DHT22;4432;50.890;4.744;2023-05-07T05:07:33;14.40;99.90
8792;DHT22;4432;50.890;4.744;2023-05-07T05:09:59;14.40;99.90
8792;DHT22;4432;50.890;4.744;2023-05-07T05:12:25;14.50;99.90
8792;DHT22;4432;50.890;4.744;2023-05-07T05:14:51;14.60;99.90
8792;DHT22;4432;50.890;4.744;2023-05-07T05:17:17;14.70;99.90
8792;DHT22;4432;50.890;4.744;2023-05-07T05:19:43;14.70;99.90
8792;DHT22;4432;50.890;4.744;2023-05-07T05:22:09;14.80;99.90
8792;DHT22;4432;50.890;4.744;2023-05-07T05:24:34;14.90;99.90
8792;DHT22;4432;50.890;4.744;2023-05-07T05:27:00;15.00;99.90
8792;DHT22;4432;50.890;4.744;2023-05-07T05:29:27;15.10;99.90
8792;DHT22;4432;50.890;4.744;2023-05-07T05:31:53;15.10;99.90
8792;DHT22;4432;50.890;4.744;2023-05-07T05:34:18;15.20;99.90
8792;DHT22;4432;50.890;4.744;2023-05-07T05:36:47;15.10;99.90
8792;DHT22;4432;50.890;4.744;2023-05-07T05:39:13;15.20;99.90
8792;DHT22;4432;50.890;4.744;2023-05-07T05:41:39;15.30;99.90
8792;DHT22;4432;50.890;4.744;2023-05-07T05:44:05;15.30;99.90
8792;DHT22;4432;50.890;4.744;2023-05-07T05:46:31;15.20;99.90
8792;DHT22;4432;50.890;4.744;2023-05-07T05:48:56;15.30;99.90
8792;DHT22;4432;50.890;4.744;2023-05-07T05:51:22;15.30;99.90
8792;DHT22;4432;50.890;4.744;2023-05-07T05:53:48;15.30;99.90
8792;DHT22;4432;50.890;4.744;2023-05-07T05:56:16;15.40;99.90
8792;DHT22;4432;50.890;4.744;2023-05-07T05:58:41;15.40;99.90
8792;DHT22;4432;50.890;4.744;2023-05-07T06:01:07;15.50;99.90
8792;DHT22;4432;50.890;4.744;2023-05-07T06:03:33;15.60;99.90
8792;DHT22;4432;50.890;4.744;2023-05-07T06:05:59;15.70;99.90
8792;DHT22;4432;50.890;4.744;2023-05-07T06:08:28;15.80;99.90
8792;DHT22;4432;50.890;4.744;2023-05-07T06:10:54;15.80;99.90
8792;DHT22;4432;50.890;4.744;2023-05-07T06:13:20;16.00;99.90
8792;DHT22;4432;50.890;4.744;2023-05-07T06:15:46;16.10;99.90
8792;DHT22;4432;50.890;4.744;2023-05-07T06:18:12;16.10;99.90
8792;DHT22;4432;50.890;4.744;2023-05-07T06:20:37;16.20;99.90
8792;DHT22;4432;50.890;4.744;2023-05-07T06:23:03;16.30;99.90
8792;DHT22;4432;50.890;4.744;2023-05-07T06:25:29;16.30;99.90
8792;DHT22;4432;50.890;4.744;2023-05-07T06:27:54;16.20;99.90
8792;DHT22;4432;50.890;4.744;2023-05-07T06:30:20;16.40;99.90
8792;DHT22;4432;50.890;4.744;2023-05-07T06:32:46;16.50;99.90
8792;DHT22;4432;50.890;4.744;2023-05-07T06:35:12;16.60;99.90
8792;DHT22;4432;50.890;4.744;2023-05-07T06:37:38;16.80;99.90
8792;DHT22;4432;50.890;4.744;2023-05-07T06:40:05;16.80;99.90
8792;DHT22;4432;50.890;4.744;2023-05-07T06:42:32;17.00;99.90
8792;DHT22;4432;50.890;4.744;2023-05-07T06:44:58;17.00;99.90
8792;DHT22;4432;50.890;4.744;2023-05-07T06:47:24;16.90;99.90
8792;DHT22;4432;50.890;4.744;2023-05-07T06:49:49;16.70;99.90
8792;DHT22;4432;50.890;4.744;2023-05-07T06:52:15;16.50;99.90
8792;DHT22;4432;50.890;4.744;2023-05-07T06:54:41;16.50;99.90
8792;DHT22;4432;50.890;4.744;2023-05-07T06:57:07;16.40;99.90
8792;DHT22;4432;50.890;4.744;2023-05-07T06:59:32;16.50;99.90
8792;DHT22;4432;50.890;4.744;2023-05-07T07:01:58;16.50;99.90
8792;DHT22;4432;50.890;4.744;2023-05-07T07:04:24;16.50;99.90
8792;DHT22;4432;50.890;4.744;2023-05-07T07:06:53;16.50;99.90
8792;DHT22;4432;50.890;4.744;2023-05-07T07:09:19;16.60;99.90
8792;DHT22;4432;50.890;4.744;2023-05-07T07:11:45;16.50;99.90
8792;DHT22;4432;50.890;4.744;2023-05-07T07:14:10;16.60;99.90
8792;DHT22;4432;50.890;4.744;2023-05-07T07:16:36;16.60;99.90
8792;DHT22;4432;50.890;4.744;2023-05-07T07:19:02;16.60;99.90
8792;DHT22;4432;50.890;4.744;2023-05-07T07:21:28;16.70;99.90
8792;DHT22;4432;50.890;4.744;2023-05-07T07:23:53;16.90;99.90
8792;DHT22;4432;50.890;4.744;2023-05-07T07:26:19;17.10;99.90
8792;DHT22;4432;50.890;4.744;2023-05-07T07:28:45;17.20;99.90
8792;DHT22;4432;50.890;4.744;2023-05-07T07:31:12;17.30;99.90
8792;DHT22;4432;50.890;4.744;2023-05-07T07:33:38;17.40;99.90
8792;DHT22;4432;50.890;4.744;2023-05-07T07:36:05;17.50;99.90
8792;DHT22;4432;50.890;4.744;2023-05-07T07:38:31;17.60;99.90
8792;DHT22;4432;50.890;4.744;2023-05-07T07:40:57;17.70;99.90
8792;DHT22;4432;50.890;4.744;2023-05-07T07:43:23;17.80;99.90
8792;DHT22;4432;50.890;4.744;2023-05-07T07:45:48;17.70;99.90
8792;DHT22;4432;50.890;4.744;2023-05-07T07:48:14;17.70;99.90
8792;DHT22;4432;50.890;4.744;2023-05-07T07:50:40;17.60;99.90
8792;DHT22;4432;50.890;4.744;2023-05-07T07:53:06;17.60;99.90
8792;DHT22;4432;50.890;4.744;2023-05-07T07:55:31;17.70;99.90
8792;DHT22;4432;50.890;4.744;2023-05-07T07:57:57;17.70;99.90
8792;DHT22;4432;50.890;4.744;2023-05-07T08:00:23;17.80;99.90
8792;DHT22;4432;50.890;4.744;2023-05-07T08:02:49;17.80;99.90
8792;DHT22;4432;50.890;4.744;2023-05-07T08:05:15;17.80;99.90
8792;DHT22;4432;50.890;4.744;2023-05-07T08:07:40;17.90;99.90
8792;DHT22;4432;50.890;4.744;2023-05-07T08:10:06;17.90;99.90
8792;DHT22;4432;50.890;4.744;2023-05-07T08:12:32;17.80;99.90
8792;DHT22;4432;50.890;4.744;2023-05-07T08:14:58;17.80;99.90
8792;DHT22;4432;50.890;4.744;2023-05-07T08:17:24;17.90;99.90
8792;DHT22;4432;50.890;4.744;2023-05-07T08:19:50;17.90;99.90
8792;DHT22;4432;50.890;4.744;2023-05-07T08:22:16;17.90;99.90
8792;DHT22;4432;50.890;4.744;2023-05-07T08:24:43;17.90;99.90
8792;DHT22;4432;50.890;4.744;2023-05-07T08:27:09;18.00;99.90
8792;DHT22;4432;50.890;4.744;2023-05-07T08:29:34;18.00;99.90
8792;DHT22;4432;50.890;4.744;2023-05-07T08:32:01;18.10;99.90
8792;DHT22;4432;50.890;4.744;2023-05-07T08:34:26;18.20;99.90
8792;DHT22;4432;50.890;4.744;2023-05-07T08:36:52;18.10;99.90
8792;DHT22;4432;50.890;4.744;2023-05-07T08:39:18;18.20;99.90
8792;DHT22;4432;50.890;4.744;2023-05-07T08:41:45;18.00;99.90
8792;DHT22;4432;50.890;4.744;2023-05-07T08:44:12;18.10;99.90
8792;DHT22;4432;50.890;4.744;2023-05-07T08:46:39;18.10;99.90
8792;DHT22;4432;50.890;4.744;2023-05-07T08:49:07;18.10;99.90
8792;DHT22;4432;50.890;4.744;2023-05-07T08:51:33;18.10;99.90
8792;DHT22;4432;50.890;4.744;2023-05-07T08:53:59;18.10;99.90
8792;DHT22;4432;50.890;4.744;2023-05-07T08:56:26;18.20;99.90
8792;DHT22;4432;50.890;4.744;2023-05-07T08:58:52;18.10;99.90
8792;DHT22;4432;50.890;4.744;2023-05-07T09:01:22;18.00;99.90
8792;DHT22;4432;50.890;4.744;2023-05-07T09:03:49;18.00;99.90
8792;DHT22;4432;50.890;4.744;2023-05-07T09:06:16;18.30;99.90
8792;DHT22;4432;50.890;4.744;2023-05-07T09:08:52;18.30;99.90
8792;DHT22;4432;50.890;4.744;2023-05-07T09:11:22;18.50;99.90
8792;DHT22;4432;50.890;4.744;2023-05-07T09:13:49;18.40;99.90
8792;DHT22;4432;50.890;4.744;2023-05-07T09:16:21;18.30;99.90
8792;DHT22;4432;50.890;4.744;2023-05-07T09:18:48;18.20;99.90
8792;DHT22;4432;50.890;4.744;2023-05-07T09:21:17;18.10;99.90
8792;DHT22;4432;50.890;4.744;2023-05-07T09:23:43;17.90;99.90
8792;DHT22;4432;50.890;4.744;2023-05-07T09:26:08;17.90;99.90
8792;DHT22;4432;50.890;4.744;2023-05-07T09:28:43;18.00;99.90
8792;DHT22;4432;50.890;4.744;2023-05-07T09:31:10;17.90;99.90
8792;DHT22;4432;50.890;4.744;2023-05-07T09:33:37;17.90;99.90
8792;DHT22;4432;50.890;4.744;2023-05-07T09:36:07;17.90;99.90
8792;DHT22;4432;50.890;4.744;2023-05-07T09:38:34;18.00;99.90
8792;DHT22;4432;50.890;4.744;2023-05-07T09:41:15;18.00;99.90
8792;DHT22;4432;50.890;4.744;2023-05-07T09:43:41;18.10;99.90
8792;DHT22;4432;50.890;4.744;2023-05-07T09:46:11;18.00;99.90
8792;DHT22;4432;50.890;4.744;2023-05-07T09:48:38;17.90;99.90
8792;DHT22;4432;50.890;4.744;2023-05-07T09:51:28;17.80;99.90
8792;DHT22;4432;50.890;4.744;2023-05-07T09:53:57;17.80;99.90
8792;DHT22;4432;50.890;4.744;2023-05-07T09:56:23;17.80;99.90
8792;DHT22;4432;50.890;4.744;2023-05-07T09:58:52;17.80;99.90
8792;DHT22;4432;50.890;4.744;2023-05-07T10:01:18;17.80;99.90
8792;DHT22;4432;50.890;4.744;2023-05-07T10:03:48;17.70;99.90
8792;DHT22;4432;50.890;4.744;2023-05-07T10:06:15;17.70;99.90
8792;DHT22;4432;50.890;4.744;2023-05-07T10:08:43;17.80;99.90
8792;DHT22;4432;50.890;4.744;2023-05-07T10:11:09;17.80;99.90
8792;DHT22;4432;50.890;4.744;2023-05-07T10:13:36;17.80;99.90
8792;DHT22;4432;50.890;4.744;2023-05-07T10:16:05;17.70;99.90
8792;DHT22;4432;50.890;4.744;2023-05-07T10:18:32;17.70;99.90
8792;DHT22;4432;50.890;4.744;2023-05-07T10:21:11;17.70;99.90
8792;DHT22;4432;50.890;4.744;2023-05-07T10:23:38;17.70;99.90
8792;DHT22;4432;50.890;4.744;2023-05-07T10:26:06;17.70;99.90
8792;DHT22;4432;50.890;4.744;2023-05-07T10:28:40;17.90;99.90
8792;DHT22;4432;50.890;4.744;2023-05-07T10:34:15;17.90;99.90
8792;DHT22;4432;50.890;4.744;2023-05-07T10:36:42;18.00;99.90
8792;DHT22;4432;50.890;4.744;2023-05-07T10:39:08;18.10;99.90
8792;DHT22;4432;50.890;4.744;2023-05-07T10:41:35;18.10;99.90
8792;DHT22;4432;50.890;4.744;2023-05-07T10:44:00;18.20;99.90
8792;DHT22;4432;50.890;4.744;2023-05-07T10:46:27;18.20;99.90
8792;DHT22;4432;50.890;4.744;2023-05-07T10:51:32;18.40;99.90
8792;DHT22;4432;50.890;4.744;2023-05-07T10:56:37;18.50;99.90
8792;DHT22;4432;50.890;4.744;2023-05-07T11:01:54;18.60;99.90
8792;DHT22;4432;50.890;4.744;2023-05-07T11:04:21;18.50;99.90
8792;DHT22;4432;50.890;4.744;2023-05-07T11:09:54;18.50;99.90
8792;DHT22;4432;50.890;4.744;2023-05-07T11:15:07;18.60;99.90
8792;DHT22;4432;50.890;4.744;2023-05-07T11:17:34;18.60;99.90
8792;DHT22;4432;50.890;4.744;2023-05-07T11:20:01;18.70;99.90
8792;DHT22;4432;50.890;4.744;2023-05-07T11:25:00;19.00;99.90
8792;DHT22;4432;50.890;4.744;2023-05-07T11:27:26;19.00;99.90
8792;DHT22;4432;50.890;4.744;2023-05-07T11:29:52;19.00;99.90
8792;DHT22;4432;50.890;4.744;2023-05-07T11:34:54;18.90;99.90
8792;DHT22;4432;50.890;4.744;2023-05-07T11:37:21;18.80;99.90
8792;DHT22;4432;50.890;4.744;2023-05-07T11:39:47;18.80;99.90
8792;DHT22;4432;50.890;4.744;2023-05-07T11:42:34;18.70;99.90
8792;DHT22;4432;50.890;4.744;2023-05-07T11:45:01;18.60;99.90
8792;DHT22;4432;50.890;4.744;2023-05-07T11:47:30;18.70;99.90
8792;DHT22;4432;50.890;4.744;2023-05-07T11:49:56;18.70;99.90
8792;DHT22;4432;50.890;4.744;2023-05-07T11:52:23;18.80;99.90
8792;DHT22;4432;50.890;4.744;2023-05-07T11:54:57;18.90;99.90
8792;DHT22;4432;50.890;4.744;2023-05-07T11:57:24;19.00;99.90
8792;DHT22;4432;50.890;4.744;2023-05-07T11:59:54;19.20;99.90
8792;DHT22;4432;50.890;4.744;2023-05-07T12:02:20;19.30;99.90
8792;DHT22;4432;50.890;4.744;2023-05-07T12:04:46;19.40;99.90
8792;DHT22;4432;50.890;4.744;2023-05-07T12:07:15;19.50;99.90
8792;DHT22;4432;50.890;4.744;2023-05-07T12:09:42;19.50;99.90
8792;DHT22;4432;50.890;4.744;2023-05-07T12:12:08;19.60;99.90
8792;DHT22;4432;50.890;4.744;2023-05-07T12:14:39;19.70;99.90
8792;DHT22;4432;50.890;4.744;2023-05-07T12:17:05;19.40;99.90
8792;DHT22;4432;50.890;4.744;2023-05-07T12:19:34;19.50;99.90
8792;DHT22;4432;50.890;4.744;2023-05-07T12:22:01;19.10;99.90
8792;DHT22;4432;50.890;4.744;2023-05-07T12:24:26;19.00;99.90
8792;DHT22;4432;50.890;4.744;2023-05-07T12:26:53;19.00;99.90
8792;DHT22;4432;50.890;4.744;2023-05-07T12:29:21;19.10;99.90
8792;DHT22;4432;50.890;4.744;2023-05-07T12:31:49;19.10;99.90
8792;DHT22;4432;50.890;4.744;2023-05-07T12:34:15;19.20;99.90
8792;DHT22;4432;50.890;4.744;2023-05-07T12:36:41;19.30;99.90
8792;DHT22;4432;50.890;4.744;2023-05-07T12:39:08;19.30;99.90
8792;DHT22;4432;50.890;4.744;2023-05-07T12:41:55;19.20;99.90
8792;DHT22;4432;50.890;4.744;2023-05-07T12:44:28;19.40;99.90
8792;DHT22;4432;50.890;4.744;2023-05-07T12:46:54;19.10;99.90
8792;DHT22;4432;50.890;4.744;2023-05-07T12:49:20;19.20;99.90
8792;DHT22;4432;50.890;4.744;2023-05-07T12:51:49;19.30;99.90
8792;DHT22;4432;50.890;4.744;2023-05-07T12:54:37;19.40;99.90
8792;DHT22;4432;50.890;4.744;2023-05-07T12:57:03;19.40;99.90
8792;DHT22;4432;50.890;4.744;2023-05-07T12:59:41;19.00;99.90
8792;DHT22;4432;50.890;4.744;2023-05-07T13:02:07;19.10;99.90
8792;DHT22;4432;50.890;4.744;2023-05-07T13:04:34;19.20;99.90
8792;DHT22;4432;50.890;4.744;2023-05-07T13:07:00;19.40;99.90
8792;DHT22;4432;50.890;4.744;2023-05-07T13:09:26;19.50;99.90
8792;DHT22;4432;50.890;4.744;2023-05-07T13:11:53;19.70;99.90
8792;DHT22;4432;50.890;4.744;2023-05-07T13:14:19;19.90;99.90
8792;DHT22;4432;50.890;4.744;2023-05-07T13:16:47;19.90;99.90
8792;DHT22;4432;50.890;4.744;2023-05-07T13:19:12;20.00;99.90
8792;DHT22;4432;50.890;4.744;2023-05-07T13:21:38;19.90;99.90
8792;DHT22;4432;50.890;4.744;2023-05-07T13:24:04;20.00;99.90
8792;DHT22;4432;50.890;4.744;2023-05-07T13:26:31;19.90;99.90
8792;DHT22;4432;50.890;4.744;2023-05-07T13:28:56;20.00;99.90
8792;DHT22;4432;50.890;4.744;2023-05-07T13:31:24;20.00;99.90
8792;DHT22;4432;50.890;4.744;2023-05-07T13:33:50;19.90;99.90
8792;DHT22;4432;50.890;4.744;2023-05-07T13:36:16;19.90;99.90
8792;DHT22;4432;50.890;4.744;2023-05-07T13:38:41;19.80;99.90
8792;DHT22;4432;50.890;4.744;2023-05-07T13:41:07;19.90;99.90
8792;DHT22;4432;50.890;4.744;2023-05-07T13:43:33;20.00;99.90
8792;DHT22;4432;50.890;4.744;2023-05-07T13:45:59;20.20;99.90
8792;DHT22;4432;50.890;4.744;2023-05-07T13:48:25;20.10;99.90
8792;DHT22;4432;50.890;4.744;2023-05-07T13:50:51;20.20;99.90
8792;DHT22;4432;50.890;4.744;2023-05-07T13:53:17;20.20;99.90
8792;DHT22;4432;50.890;4.744;2023-05-07T13:55:44;20.20;99.90
8792;DHT22;4432;50.890;4.744;2023-05-07T13:58:10;20.10;99.90
8792;DHT22;4432;50.890;4.744;2023-05-07T14:00:36;19.90;99.90
8792;DHT22;4432;50.890;4.744;2023-05-07T14:03:02;20.00;99.90
8792;DHT22;4432;50.890;4.744;2023-05-07T14:05:29;20.00;99.90
8792;DHT22;4432;50.890;4.744;2023-05-07T14:07:57;20.00;99.90
8792;DHT22;4432;50.890;4.744;2023-05-07T14:10:23;19.90;99.90
8792;DHT22;4432;50.890;4.744;2023-05-07T14:12:49;19.90;99.90
8792;DHT22;4432;50.890;4.744;2023-05-07T14:15:15;19.90;99.90
8792;DHT22;4432;50.890;4.744;2023-05-07T14:17:42;19.80;99.90
8792;DHT22;4432;50.890;4.744;2023-05-07T14:20:08;19.80;99.90
8792;DHT22;4432;50.890;4.744;2023-05-07T14:22:36;19.80;99.90
8792;DHT22;4432;50.890;4.744;2023-05-07T14:25:01;19.80;99.90
8792;DHT22;4432;50.890;4.744;2023-05-07T14:27:27;19.70;99.90
8792;DHT22;4432;50.890;4.744;2023-05-07T14:29:53;19.70;99.90
8792;DHT22;4432;50.890;4.744;2023-05-07T14:32:19;19.70;99.90
8792;DHT22;4432;50.890;4.744;2023-05-07T14:34:45;19.60;99.90
8792;DHT22;4432;50.890;4.744;2023-05-07T14:37:11;19.50;99.90
8792;DHT22;4432;50.890;4.744;2023-05-07T14:39:37;19.50;99.90
8792;DHT22;4432;50.890;4.744;2023-05-07T14:42:03;19.50;99.90
8792;DHT22;4432;50.890;4.744;2023-05-07T14:44:29;19.50;99.90
8792;DHT22;4432;50.890;4.744;2023-05-07T14:46:55;19.50;99.90
8792;DHT22;4432;50.890;4.744;2023-05-07T14:49:21;19.60;99.90
8792;DHT22;4432;50.890;4.744;2023-05-07T14:51:47;19.60;99.90
8792;DHT22;4432;50.890;4.744;2023-05-07T14:54:13;19.70;99.90
8792;DHT22;4432;50.890;4.744;2023-05-07T14:56:40;19.80;99.90
8792;DHT22;4432;50.890;4.744;2023-05-07T14:59:06;19.80;99.90
8792;DHT22;4432;50.890;4.744;2023-05-07T15:01:32;19.80;99.90
8792;DHT22;4432;50.890;4.744;2023-05-07T15:03:59;19.80;99.90
8792;DHT22;4432;50.890;4.744;2023-05-07T15:06:25;19.90;99.90
8792;DHT22;4432;50.890;4.744;2023-05-07T15:08:52;19.70;99.90
8792;DHT22;4432;50.890;4.744;2023-05-07T15:11:18;19.70;99.90
8792;DHT22;4432;50.890;4.744;2023-05-07T15:13:43;19.60;99.90
8792;DHT22;4432;50.890;4.744;2023-05-07T15:16:10;19.60;99.90
8792;DHT22;4432;50.890;4.744;2023-05-07T15:18:35;19.70;99.90
8792;DHT22;4432;50.890;4.744;2023-05-07T15:21:01;19.70;99.90
8792;DHT22;4432;50.890;4.744;2023-05-07T15:23:27;19.70;99.90
8792;DHT22;4432;50.890;4.744;2023-05-07T15:25:53;19.70;99.90
8792;DHT22;4432;50.890;4.744;2023-05-07T15:28:19;19.70;99.90
8792;DHT22;4432;50.890;4.744;2023-05-07T15:30:45;19.60;99.90
8792;DHT22;4432;50.890;4.744;2023-05-07T15:33:11;19.60;99.90
8792;DHT22;4432;50.890;4.744;2023-05-07T15:35:36;19.60;99.90
8792;DHT22;4432;50.890;4.744;2023-05-07T15:38:02;19.60;99.90
8792;DHT22;4432;50.890;4.744;2023-05-07T15:40:29;19.60;99.90
8792;DHT22;4432;50.890;4.744;2023-05-07T15:42:55;19.60;99.90
8792;DHT22;4432;50.890;4.744;2023-05-07T15:45:23;19.70;99.90
8792;DHT22;4432;50.890;4.744;2023-05-07T15:47:49;19.70;99.90
8792;DHT22;4432;50.890;4.744;2023-05-07T15:50:15;19.60;99.90
8792;DHT22;4432;50.890;4.744;2023-05-07T15:52:41;19.40;99.90
8792;DHT22;4432;50.890;4.744;2023-05-07T15:55:07;19.50;99.90
8792;DHT22;4432;50.890;4.744;2023-05-07T15:57:34;19.40;99.90
8792;DHT22;4432;50.890;4.744;2023-05-07T16:00:01;19.40;99.90
8792;DHT22;4432;50.890;4.744;2023-05-07T16:02:28;19.40;99.90
8792;DHT22;4432;50.890;4.744;2023-05-07T16:04:54;19.20;99.90
8792;DHT22;4432;50.890;4.744;2023-05-07T16:07:19;19.20;99.90
8792;DHT22;4432;50.890;4.744;2023-05-07T16:09:45;19.20;99.90
8792;DHT22;4432;50.890;4.744;2023-05-07T16:12:12;19.10;99.90
8792;DHT22;4432;50.890;4.744;2023-05-07T16:14:37;19.20;99.90
8792;DHT22;4432;50.890;4.744;2023-05-07T16:17:03;19.20;99.90
8792;DHT22;4432;50.890;4.744;2023-05-07T16:19:29;18.90;99.90